sensor_id;sensor_type;location;lat;lon;timestamp;pressure;altitude;pressure_sealevel;temperature;humidity
47524;BME280;33253;42.144;25.884;2023-03-04T00:00:51;100657.19;;;3.84;100.00
47524;BME280;33253;42.144;25.884;2023-03-04T00:03:16;100662.28;;;3.84;100.00
47524;BME280;33253;42.144;25.884;2023-03-04T00:05:41;100654.50;;;3.82;100.00
47524;BME280;33253;42.144;25.884;2023-03-04T00:08:06;100648.22;;;3.77;100.00
47524;BME280;33253;42.144;25.884;2023-03-04T00:10:32;100651.97;;;3.57;100.00
47524;BME280;33253;42.144;25.884;2023-03-04T00:12:57;100649.06;;;3.39;100.00
47524;BME280;33253;42.144;25.884;2023-03-04T00:15:22;100648.75;;;3.34;100.00
47524;BME280;33253;42.144;25.884;2023-03-04T00:17:48;100648.50;;;3.43;100.00
47524;BME280;33253;42.144;25.884;2023-03-04T00:20:13;100655.78;;;3.50;100.00
47524;BME280;33253;42.144;25.884;2023-03-04T00:22:38;100647.81;;;3.46;100.00
47524;BME280;33253;42.144;25.884;2023-03-04T00:25:03;100658.38;;;3.38;100.00
47524;BME280;33253;42.144;25.884;2023-03-04T00:27:29;100651.19;;;3.33;100.00
47524;BME280;33253;42.144;25.884;2023-03-04T00:29:55;100650.63;;;3.37;100.00
47524;BME280;33253;42.144;25.884;2023-03-04T00:32:20;100646.28;;;3.36;100.00
47524;BME280;33253;42.144;25.884;2023-03-04T00:34:46;100654.09;;;3.26;100.00
47524;BME280;33253;42.144;25.884;2023-03-04T00:37:11;100653.44;;;3.16;100.00
47524;BME280;33253;42.144;25.884;2023-03-04T00:39:36;100648.28;;;3.03;100.00
47524;BME280;33253;42.144;25.884;2023-03-04T00:42:02;100652.16;;;2.98;100.00
47524;BME280;33253;42.144;25.884;2023-03-04T00:44:27;100655.72;;;3.00;100.00
47524;BME280;33253;42.144;25.884;2023-03-04T00:46:52;100654.38;;;3.05;100.00
47524;BME280;33253;42.144;25.884;2023-03-04T00:49:18;100649.59;;;3.10;100.00
47524;BME280;33253;42.144;25.884;2023-03-04T00:51:43;100650.91;;;3.16;100.00
47524;BME280;33253;42.144;25.884;2023-03-04T00:54:08;100646.22;;;3.22;100.00
47524;BME280;33253;42.144;25.884;2023-03-04T00:56:33;100648.53;;;3.31;100.00
47524;BME280;33253;42.144;25.884;2023-03-04T00:58:59;100656.75;;;3.27;100.00
47524;BME280;33253;42.144;25.884;2023-03-04T01:01:24;100654.13;;;3.14;100.00
47524;BME280;33253;42.144;25.884;2023-03-04T01:03:49;100659.56;;;3.18;100.00
47524;BME280;33253;42.144;25.884;2023-03-04T01:06:15;100662.78;;;3.16;100.00
47524;BME280;33253;42.144;25.884;2023-03-04T01:08:40;100666.78;;;3.00;100.00
47524;BME280;33253;42.144;25.884;2023-03-04T01:11:06;100665.72;;;2.97;100.00
47524;BME280;33253;42.144;25.884;2023-03-04T01:13:31;100676.13;;;3.00;100.00
47524;BME280;33253;42.144;25.884;2023-03-04T01:15:57;100671.34;;;2.92;100.00
47524;BME280;33253;42.144;25.884;2023-03-04T01:18:22;100670.81;;;2.97;100.00
47524;BME280;33253;42.144;25.884;2023-03-04T01:20:48;100671.25;;;3.03;100.00
47524;BME280;33253;42.144;25.884;2023-03-04T01:23:13;100668.13;;;3.07;100.00
47524;BME280;33253;42.144;25.884;2023-03-04T01:25:38;100674.69;;;3.03;100.00
47524;BME280;33253;42.144;25.884;2023-03-04T01:28:04;100677.41;;;3.06;100.00
47524;BME280;33253;42.144;25.884;2023-03-04T01:30:29;100680.97;;;3.08;100.00
47524;BME280;33253;42.144;25.884;2023-03-04T01:32:54;100671.97;;;3.14;100.00
47524;BME280;33253;42.144;25.884;2023-03-04T01:35:20;100676.97;;;3.12;100.00
47524;BME280;33253;42.144;25.884;2023-03-04T01:37:45;100658.03;;;3.08;100.00
47524;BME280;33253;42.144;25.884;2023-03-04T01:40:11;100663.91;;;3.07;100.00
47524;BME280;33253;42.144;25.884;2023-03-04T01:42:37;100651.56;;;3.14;100.00
47524;BME280;33253;42.144;25.884;2023-03-04T01:45:03;100656.22;;;3.19;100.00
47524;BME280;33253;42.144;25.884;2023-03-04T01:47:29;100659.75;;;3.21;100.00
47524;BME280;33253;42.144;25.884;2023-03-04T01:49:55;100663.13;;;3.20;100.00
47524;BME280;33253;42.144;25.884;2023-03-04T01:52:21;100663.59;;;3.03;100.00
47524;BME280;33253;42.144;25.884;2023-03-04T01:54:47;100660.56;;;3.08;100.00
47524;BME280;33253;42.144;25.884;2023-03-04T01:57:16;100659.22;;;3.14;100.00
47524;BME280;33253;42.144;25.884;2023-03-04T01:59:42;100654.28;;;3.03;100.00
47524;BME280;33253;42.144;25.884;2023-03-04T02:02:07;100649.84;;;3.01;100.00
47524;BME280;33253;42.144;25.884;2023-03-04T02:04:33;100646.94;;;3.08;100.00
47524;BME280;33253;42.144;25.884;2023-03-04T02:06:58;100651.56;;;3.14;100.00
47524;BME280;33253;42.144;25.884;2023-03-04T02:09:25;100651.81;;;3.17;100.00
47524;BME280;33253;42.144;25.884;2023-03-04T02:11:51;100651.91;;;3.18;100.00
47524;BME280;33253;42.144;25.884;2023-03-04T02:14:17;100661.34;;;3.19;100.00
47524;BME280;33253;42.144;25.884;2023-03-04T02:16:42;100664.56;;;3.17;100.00
47524;BME280;33253;42.144;25.884;2023-03-04T02:21:48;100659.22;;;3.14;100.00
47524;BME280;33253;42.144;25.884;2023-03-04T02:26:57;100663.22;;;3.10;100.00
47524;BME280;33253;42.144;25.884;2023-03-04T02:29:22;100663.44;;;3.13;100.00
47524;BME280;33253;42.144;25.884;2023-03-04T02:31:48;100669.91;;;3.08;100.00
47524;BME280;33253;42.144;25.884;2023-03-04T02:34:16;100671.78;;;2.99;100.00
47524;BME280;33253;42.144;25.884;2023-03-04T02:36:42;100674.81;;;2.93;100.00
47524;BME280;33253;42.144;25.884;2023-03-04T02:42:11;100667.84;;;2.79;100.00
47524;BME280;33253;42.144;25.884;2023-03-04T02:44:37;100662.53;;;2.52;100.00
47524;BME280;33253;42.144;25.884;2023-03-04T02:47:04;100667.19;;;2.46;100.00
47524;BME280;33253;42.144;25.884;2023-03-04T02:49:30;100658.09;;;2.49;100.00
47524;BME280;33253;42.144;25.884;2023-03-04T02:52:00;100653.66;;;2.58;100.00
47524;BME280;33253;42.144;25.884;2023-03-04T02:54:26;100653.44;;;2.67;100.00
47524;BME280;33253;42.144;25.884;2023-03-04T02:56:52;100639.16;;;2.69;100.00
47524;BME280;33253;42.144;25.884;2023-03-04T02:59:18;100637.47;;;2.70;100.00
47524;BME280;33253;42.144;25.884;2023-03-04T03:01:44;100633.03;;;2.67;100.00
47524;BME280;33253;42.144;25.884;2023-03-04T03:04:09;100627.28;;;2.70;100.00
47524;BME280;33253;42.144;25.884;2023-03-04T03:06:37;100626.16;;;2.78;100.00
47524;BME280;33253;42.144;25.884;2023-03-04T03:09:03;100631.78;;;2.86;100.00
47524;BME280;33253;42.144;25.884;2023-03-04T03:11:28;100627.03;;;2.90;100.00
47524;BME280;33253;42.144;25.884;2023-03-04T03:13:53;100630.53;;;3.04;100.00
47524;BME280;33253;42.144;25.884;2023-03-04T03:16:19;100637.28;;;3.04;100.00
47524;BME280;33253;42.144;25.884;2023-03-04T03:18:44;100643.84;;;3.00;100.00
47524;BME280;33253;42.144;25.884;2023-03-04T03:21:09;100646.03;;;3.07;100.00
47524;BME280;33253;42.144;25.884;2023-03-04T03:23:34;100655.13;;;3.16;100.00
47524;BME280;33253;42.144;25.884;2023-03-04T03:26:00;100656.00;;;3.16;100.00
47524;BME280;33253;42.144;25.884;2023-03-04T03:28:25;100650.91;;;3.16;100.00
47524;BME280;33253;42.144;25.884;2023-03-04T03:30:51;100652.22;;;3.23;100.00
47524;BME280;33253;42.144;25.884;2023-03-04T03:33:16;100646.88;;;3.32;100.00
47524;BME280;33253;42.144;25.884;2023-03-04T03:35:41;100650.72;;;3.38;100.00
47524;BME280;33253;42.144;25.884;2023-03-04T03:38:06;100656.81;;;3.40;100.00
47524;BME280;33253;42.144;25.884;2023-03-04T03:40:32;100659.38;;;3.40;100.00
47524;BME280;33253;42.144;25.884;2023-03-04T03:42:57;100663.47;;;3.38;100.00
47524;BME280;33253;42.144;25.884;2023-03-04T03:45:22;100666.81;;;3.37;100.00
47524;BME280;33253;42.144;25.884;2023-03-04T03:47:47;100673.69;;;3.38;100.00
47524;BME280;33253;42.144;25.884;2023-03-04T03:50:13;100678.78;;;3.38;100.00
47524;BME280;33253;42.144;25.884;2023-03-04T03:52:38;100679.56;;;3.37;100.00
47524;BME280;33253;42.144;25.884;2023-03-04T03:55:03;100677.25;;;3.40;100.00
47524;BME280;33253;42.144;25.884;2023-03-04T03:57:29;100673.25;;;3.44;100.00
47524;BME280;33253;42.144;25.884;2023-03-04T03:59:54;100669.69;;;3.42;100.00
47524;BME280;33253;42.144;25.884;2023-03-04T04:02:20;100679.13;;;3.43;100.00
47524;BME280;33253;42.144;25.884;2023-03-04T04:04:46;100675.88;;;3.46;100.00
47524;BME280;33253;42.144;25.884;2023-03-04T04:07:11;100672.56;;;3.47;100.00
47524;BME280;33253;42.144;25.884;2023-03-04T04:09:36;100674.13;;;3.45;100.00
47524;BME280;33253;42.144;25.884;2023-03-04T04:12:03;100677.16;;;3.39;100.00
47524;BME280;33253;42.144;25.884;2023-03-04T04:14:29;100670.81;;;3.34;100.00
47524;BME280;33253;42.144;25.884;2023-03-04T04:16:54;100671.63;;;3.33;100.00
47524;BME280;33253;42.144;25.884;2023-03-04T04:19:19;100674.16;;;3.33;100.00
47524;BME280;33253;42.144;25.884;2023-03-04T04:21:45;100661.09;;;3.28;100.00
47524;BME280;33253;42.144;25.884;2023-03-04T04:24:10;100662.03;;;3.05;100.00
47524;BME280;33253;42.144;25.884;2023-03-04T04:26:36;100665.16;;;2.89;100.00
47524;BME280;33253;42.144;25.884;2023-03-04T04:29:01;100672.38;;;2.83;100.00
47524;BME280;33253;42.144;25.884;2023-03-04T04:31:26;100661.06;;;2.91;100.00
47524;BME280;33253;42.144;25.884;2023-03-04T04:33:51;100661.50;;;2.97;100.00
47524;BME280;33253;42.144;25.884;2023-03-04T04:36:17;100668.28;;;2.97;100.00
47524;BME280;33253;42.144;25.884;2023-03-04T04:38:42;100657.16;;;2.96;100.00
47524;BME280;33253;42.144;25.884;2023-03-04T04:41:18;100653.16;;;3.00;100.00
47524;BME280;33253;42.144;25.884;2023-03-04T04:43:43;100660.16;;;3.02;100.00
47524;BME280;33253;42.144;25.884;2023-03-04T04:46:08;100657.16;;;3.08;100.00
47524;BME280;33253;42.144;25.884;2023-03-04T04:48:34;100656.25;;;3.07;100.00
47524;BME280;33253;42.144;25.884;2023-03-04T04:50:59;100671.69;;;3.09;100.00
47524;BME280;33253;42.144;25.884;2023-03-04T04:53:24;100662.44;;;3.11;100.00
47524;BME280;33253;42.144;25.884;2023-03-04T04:55:50;100656.66;;;3.14;100.00
47524;BME280;33253;42.144;25.884;2023-03-04T04:58:15;100657.34;;;3.11;100.00
47524;BME280;33253;42.144;25.884;2023-03-04T05:00:40;100665.22;;;3.14;100.00
47524;BME280;33253;42.144;25.884;2023-03-04T05:03:05;100661.00;;;3.15;100.00
47524;BME280;33253;42.144;25.884;2023-03-04T05:05:31;100664.91;;;3.10;100.00
47524;BME280;33253;42.144;25.884;2023-03-04T05:07:56;100663.22;;;3.10;100.00
47524;BME280;33253;42.144;25.884;2023-03-04T05:10:21;100661.91;;;3.03;100.00
47524;BME280;33253;42.144;25.884;2023-03-04T05:12:46;100655.38;;;2.95;100.00
47524;BME280;33253;42.144;25.884;2023-03-04T05:15:12;100656.06;;;2.92;100.00
47524;BME280;33253;42.144;25.884;2023-03-04T05:17:37;100664.47;;;3.03;100.00
47524;BME280;33253;42.144;25.884;2023-03-04T05:20:02;100657.16;;;3.08;100.00
47524;BME280;33253;42.144;25.884;2023-03-04T05:22:28;100658.94;;;3.09;100.00
47524;BME280;33253;42.144;25.884;2023-03-04T05:24:53;100667.56;;;3.11;100.00
47524;BME280;33253;42.144;25.884;2023-03-04T05:27:19;100669.44;;;3.14;100.00
47524;BME280;33253;42.144;25.884;2023-03-04T05:29:44;100667.88;;;3.16;100.00
47524;BME280;33253;42.144;25.884;2023-03-04T05:32:11;100674.97;;;3.20;100.00
47524;BME280;33253;42.144;25.884;2023-03-04T05:34:36;100674.19;;;3.21;100.00
47524;BME280;33253;42.144;25.884;2023-03-04T05:37:01;100669.84;;;3.20;100.00
47524;BME280;33253;42.144;25.884;2023-03-04T05:39:26;100673.94;;;3.30;100.00
47524;BME280;33253;42.144;25.884;2023-03-04T05:41:52;100675.63;;;3.29;100.00
47524;BME280;33253;42.144;25.884;2023-03-04T05:44:17;100675.72;;;3.31;100.00
47524;BME280;33253;42.144;25.884;2023-03-04T05:46:42;100677.50;;;3.20;100.00
47524;BME280;33253;42.144;25.884;2023-03-04T05:49:08;100687.09;;;3.11;100.00
47524;BME280;33253;42.144;25.884;2023-03-04T05:51:33;100688.97;;;3.01;100.00
47524;BME280;33253;42.144;25.884;2023-03-04T05:53:58;100683.75;;;3.12;100.00
47524;BME280;33253;42.144;25.884;2023-03-04T05:56:23;100686.16;;;3.22;100.00
47524;BME280;33253;42.144;25.884;2023-03-04T05:58:49;100685.50;;;3.24;100.00
47524;BME280;33253;42.144;25.884;2023-03-04T06:01:14;100691.03;;;3.31;100.00
47524;BME280;33253;42.144;25.884;2023-03-04T06:03:40;100689.78;;;3.37;100.00
47524;BME280;33253;42.144;25.884;2023-03-04T06:06:07;100692.22;;;3.36;100.00
47524;BME280;33253;42.144;25.884;2023-03-04T06:08:33;100687.03;;;3.34;100.00
47524;BME280;33253;42.144;25.884;2023-03-04T06:10:58;100687.44;;;3.40;100.00
47524;BME280;33253;42.144;25.884;2023-03-04T06:13:23;100697.31;;;3.48;100.00
47524;BME280;33253;42.144;25.884;2023-03-04T06:15:53;100709.50;;;3.52;100.00
47524;BME280;33253;42.144;25.884;2023-03-04T06:18:18;100696.66;;;3.64;100.00
47524;BME280;33253;42.144;25.884;2023-03-04T06:20:43;100700.53;;;3.70;100.00
47524;BME280;33253;42.144;25.884;2023-03-04T06:23:10;100698.00;;;3.70;100.00
47524;BME280;33253;42.144;25.884;2023-03-04T06:25:36;100699.50;;;3.80;100.00
47524;BME280;33253;42.144;25.884;2023-03-04T06:28:01;100709.66;;;3.92;100.00
47524;BME280;33253;42.144;25.884;2023-03-04T06:30:26;100708.47;;;3.87;100.00
47524;BME280;33253;42.144;25.884;2023-03-04T06:32:52;100712.97;;;3.91;100.00
47524;BME280;33253;42.144;25.884;2023-03-04T06:35:17;100722.06;;;3.99;100.00
47524;BME280;33253;42.144;25.884;2023-03-04T06:37:43;100719.06;;;4.05;100.00
47524;BME280;33253;42.144;25.884;2023-03-04T06:40:08;100714.13;;;4.08;100.00
47524;BME280;33253;42.144;25.884;2023-03-04T06:42:34;100712.66;;;4.12;100.00
47524;BME280;33253;42.144;25.884;2023-03-04T06:45:00;100704.59;;;4.05;100.00
47524;BME280;33253;42.144;25.884;2023-03-04T06:47:26;100705.53;;;3.94;100.00
47524;BME280;33253;42.144;25.884;2023-03-04T06:49:51;100696.97;;;3.94;100.00
47524;BME280;33253;42.144;25.884;2023-03-04T06:52:17;100701.47;;;3.84;100.00
47524;BME280;33253;42.144;25.884;2023-03-04T06:54:42;100702.91;;;3.93;100.00
47524;BME280;33253;42.144;25.884;2023-03-04T06:57:07;100703.59;;;4.03;100.00
47524;BME280;33253;42.144;25.884;2023-03-04T06:59:33;100707.75;;;4.15;100.00
47524;BME280;33253;42.144;25.884;2023-03-04T07:01:58;100697.56;;;4.28;100.00
47524;BME280;33253;42.144;25.884;2023-03-04T07:04:23;100701.41;;;4.35;100.00
47524;BME280;33253;42.144;25.884;2023-03-04T07:06:49;100696.03;;;4.44;100.00
47524;BME280;33253;42.144;25.884;2023-03-04T07:09:15;100696.03;;;4.44;100.00
47524;BME280;33253;42.144;25.884;2023-03-04T07:11:40;100690.91;;;4.44;100.00
47524;BME280;33253;42.144;25.884;2023-03-04T07:14:05;100688.25;;;4.56;100.00
47524;BME280;33253;42.144;25.884;2023-03-04T07:16:31;100693.75;;;4.62;100.00
47524;BME280;33253;42.144;25.884;2023-03-04T07:18:56;100702.91;;;4.72;100.00
47524;BME280;33253;42.144;25.884;2023-03-04T07:21:22;100693.38;;;4.82;100.00
47524;BME280;33253;42.144;25.884;2023-03-04T07:23:47;100688.66;;;4.89;100.00
47524;BME280;33253;42.144;25.884;2023-03-04T07:26:13;100683.81;;;4.93;100.00
47524;BME280;33253;42.144;25.884;2023-03-04T07:28:38;100688.53;;;5.00;100.00
47524;BME280;33253;42.144;25.884;2023-03-04T07:31:23;100689.13;;;5.10;100.00
47524;BME280;33253;42.144;25.884;2023-03-04T07:33:49;100687.91;;;5.18;100.00
47524;BME280;33253;42.144;25.884;2023-03-04T07:36:15;100684.84;;;5.24;100.00
47524;BME280;33253;42.144;25.884;2023-03-04T07:38:44;100686.00;;;5.29;100.00
47524;BME280;33253;42.144;25.884;2023-03-04T07:41:09;100684.53;;;5.32;100.00
47524;BME280;33253;42.144;25.884;2023-03-04T07:43:35;100675.53;;;5.39;100.00
47524;BME280;33253;42.144;25.884;2023-03-04T07:46:00;100679.53;;;5.49;100.00
47524;BME280;33253;42.144;25.884;2023-03-04T07:48:26;100682.69;;;5.58;100.00
47524;BME280;33253;42.144;25.884;2023-03-04T07:51:01;100683.03;;;5.64;100.00
47524;BME280;33253;42.144;25.884;2023-03-04T07:53:26;100675.25;;;5.63;100.00
47524;BME280;33253;42.144;25.884;2023-03-04T07:55:51;100679.78;;;5.67;100.00
47524;BME280;33253;42.144;25.884;2023-03-04T07:58:16;100675.63;;;5.69;100.00
47524;BME280;33253;42.144;25.884;2023-03-04T08:00:43;100683.75;;;5.77;100.00
47524;BME280;33253;42.144;25.884;2023-03-04T08:03:10;100677.22;;;5.67;100.00
47524;BME280;33253;42.144;25.884;2023-03-04T08:05:38;100680.03;;;5.72;100.00
47524;BME280;33253;42.144;25.884;2023-03-04T08:08:03;100678.53;;;5.75;100.00
47524;BME280;33253;42.144;25.884;2023-03-04T08:10:28;100679.25;;;5.73;100.00
47524;BME280;33253;42.144;25.884;2023-03-04T08:12:53;100676.28;;;5.80;100.00
47524;BME280;33253;42.144;25.884;2023-03-04T08:15:19;100682.75;;;5.88;100.00
47524;BME280;33253;42.144;25.884;2023-03-04T08:17:44;100683.00;;;5.93;100.00
47524;BME280;33253;42.144;25.884;2023-03-04T08:20:10;100682.53;;;5.98;100.00
47524;BME280;33253;42.144;25.884;2023-03-04T08:22:35;100681.91;;;6.03;100.00
47524;BME280;33253;42.144;25.884;2023-03-04T08:25:00;100684.03;;;6.10;100.00
47524;BME280;33253;42.144;25.884;2023-03-04T08:27:26;100691.72;;;6.10;100.00
47524;BME280;33253;42.144;25.884;2023-03-04T08:29:51;100680.25;;;6.18;100.00
47524;BME280;33253;42.144;25.884;2023-03-04T08:32:16;100679.41;;;6.19;100.00
47524;BME280;33253;42.144;25.884;2023-03-04T08:34:42;100675.56;;;6.26;100.00
47524;BME280;33253;42.144;25.884;2023-03-04T08:37:07;100678.63;;;6.20;100.00
47524;BME280;33253;42.144;25.884;2023-03-04T08:39:32;100676.97;;;6.21;100.00
47524;BME280;33253;42.144;25.884;2023-03-04T08:42:00;100673.50;;;6.20;100.00
47524;BME280;33253;42.144;25.884;2023-03-04T08:44:25;100681.13;;;6.19;100.00
47524;BME280;33253;42.144;25.884;2023-03-04T08:46:50;100679.78;;;6.25;100.00
47524;BME280;33253;42.144;25.884;2023-03-04T08:49:16;100680.91;;;6.30;100.00
47524;BME280;33253;42.144;25.884;2023-03-04T08:51:41;100684.75;;;6.37;100.00
47524;BME280;33253;42.144;25.884;2023-03-04T08:54:07;100691.88;;;6.43;100.00
47524;BME280;33253;42.144;25.884;2023-03-04T08:56:32;100693.94;;;6.48;100.00
47524;BME280;33253;42.144;25.884;2023-03-04T08:58:57;100693.41;;;6.54;100.00
47524;BME280;33253;42.144;25.884;2023-03-04T09:01:23;100692.13;;;6.62;100.00
47524;BME280;33253;42.144;25.884;2023-03-04T09:03:48;100687.34;;;6.69;100.00
47524;BME280;33253;42.144;25.884;2023-03-04T09:06:14;100685.56;;;6.68;100.00
47524;BME280;33253;42.144;25.884;2023-03-04T09:08:40;100679.38;;;6.64;100.00
47524;BME280;33253;42.144;25.884;2023-03-04T09:11:05;100674.56;;;6.54;100.00
47524;BME280;33253;42.144;25.884;2023-03-04T09:13:31;100678.44;;;6.62;100.00
47524;BME280;33253;42.144;25.884;2023-03-04T09:15:57;100680.19;;;6.78;100.00
47524;BME280;33253;42.144;25.884;2023-03-04T09:18:22;100676.00;;;6.80;100.00
47524;BME280;33253;42.144;25.884;2023-03-04T09:20:48;100676.41;;;6.88;100.00
47524;BME280;33253;42.144;25.884;2023-03-04T09:23:14;100673.25;;;6.92;100.00
47524;BME280;33253;42.144;25.884;2023-03-04T09:25:40;100675.97;;;6.95;100.00
47524;BME280;33253;42.144;25.884;2023-03-04T09:28:06;100671.72;;;6.95;100.00
47524;BME280;33253;42.144;25.884;2023-03-04T09:30:31;100664.97;;;6.97;100.00
47524;BME280;33253;42.144;25.884;2023-03-04T09:32:57;100651.34;;;6.99;100.00
47524;BME280;33253;42.144;25.884;2023-03-04T09:35:22;100641.59;;;7.08;100.00
47524;BME280;33253;42.144;25.884;2023-03-04T09:37:48;100650.72;;;7.03;100.00
47524;BME280;33253;42.144;25.884;2023-03-04T09:43:01;100642.84;;;7.00;100.00
47524;BME280;33253;42.144;25.884;2023-03-04T09:45:42;100633.00;;;7.24;100.00
47524;BME280;33253;42.144;25.884;2023-03-04T09:48:15;100626.84;;;7.53;100.00
47524;BME280;33253;42.144;25.884;2023-03-04T09:50:43;100623.44;;;7.71;100.00
47524;BME280;33253;42.144;25.884;2023-03-04T09:55:41;100622.84;;;8.11;100.00
47524;BME280;33253;42.144;25.884;2023-03-04T10:01:23;100614.06;;;8.78;100.00
47524;BME280;33253;42.144;25.884;2023-03-04T10:06:18;100599.88;;;9.26;100.00
47524;BME280;33253;42.144;25.884;2023-03-04T10:08:45;100592.63;;;9.17;100.00
47524;BME280;33253;42.144;25.884;2023-03-04T10:13:42;100578.63;;;9.30;100.00
47524;BME280;33253;42.144;25.884;2023-03-04T10:16:11;100585.59;;;9.32;100.00
47524;BME280;33253;42.144;25.884;2023-03-04T10:18:40;100581.03;;;9.46;100.00
47524;BME280;33253;42.144;25.884;2023-03-04T10:21:16;100571.50;;;9.44;100.00
47524;BME280;33253;42.144;25.884;2023-03-04T10:23:44;100523.13;;;9.38;100.00
47524;BME280;33253;42.144;25.884;2023-03-04T10:26:14;100563.75;;;9.84;100.00
47524;BME280;33253;42.144;25.884;2023-03-04T10:28:39;100552.59;;;9.85;100.00
47524;BME280;33253;42.144;25.884;2023-03-04T10:31:08;100551.31;;;9.97;100.00
47524;BME280;33253;42.144;25.884;2023-03-04T10:33:37;100546.81;;;10.12;100.00
47524;BME280;33253;42.144;25.884;2023-03-04T10:38:32;100532.69;;;10.25;100.00
47524;BME280;33253;42.144;25.884;2023-03-04T10:40:58;100532.16;;;10.34;100.00
47524;BME280;33253;42.144;25.884;2023-03-04T10:43:24;100532.31;;;10.37;100.00
47524;BME280;33253;42.144;25.884;2023-03-04T10:45:53;100530.41;;;10.33;100.00
47524;BME280;33253;42.144;25.884;2023-03-04T10:48:20;100532.53;;;10.20;100.00
47524;BME280;33253;42.144;25.884;2023-03-04T10:50:46;100527.28;;;10.19;100.00
47524;BME280;33253;42.144;25.884;2023-03-04T10:53:31;100523.94;;;10.22;100.00
47524;BME280;33253;42.144;25.884;2023-03-04T10:56:00;100520.09;;;10.12;100.00
47524;BME280;33253;42.144;25.884;2023-03-04T10:58:26;100511.16;;;10.02;100.00
47524;BME280;33253;42.144;25.884;2023-03-04T11:01:01;100516.56;;;9.87;100.00
47524;BME280;33253;42.144;25.884;2023-03-04T11:03:29;100509.59;;;9.84;100.00
47524;BME280;33253;42.144;25.884;2023-03-04T11:08:39;100492.88;;;10.18;100.00
47524;BME280;33253;42.144;25.884;2023-03-04T11:11:20;100491.91;;;10.16;100.00
47524;BME280;33253;42.144;25.884;2023-03-04T11:13:55;100486.19;;;10.24;100.00
47524;BME280;33253;42.144;25.884;2023-03-04T11:16:24;100480.47;;;10.54;100.00
47524;BME280;33253;42.144;25.884;2023-03-04T11:18:51;100472.84;;;10.57;100.00
47524;BME280;33253;42.144;25.884;2023-03-04T11:21:21;100472.31;;;10.65;100.00
47524;BME280;33253;42.144;25.884;2023-03-04T11:23:56;100465.97;;;10.81;100.00
47524;BME280;33253;42.144;25.884;2023-03-04T11:31:32;100448.28;;;11.44;100.00
47524;BME280;33253;42.144;25.884;2023-03-04T11:34:02;100449.78;;;11.63;100.00
47524;BME280;33253;42.144;25.884;2023-03-04T11:39:15;100438.72;;;11.41;100.00
47524;BME280;33253;42.144;25.884;2023-03-04T11:41:42;100437.19;;;11.46;100.00
47524;BME280;33253;42.144;25.884;2023-03-04T11:44:10;100436.50;;;11.52;100.00
47524;BME280;33253;42.144;25.884;2023-03-04T11:54:47;100424.84;;;11.12;100.00
47524;BME280;33253;42.144;25.884;2023-03-04T12:04:55;100416.53;;;11.21;100.00
47524;BME280;33253;42.144;25.884;2023-03-04T12:10:29;100416.13;;;11.61;100.00
47524;BME280;33253;42.144;25.884;2023-03-04T12:21:05;100409.38;;;11.94;100.00
47524;BME280;33253;42.144;25.884;2023-03-04T12:31:30;100402.59;;;11.70;100.00
47524;BME280;33253;42.144;25.884;2023-03-04T12:44:17;100396.69;;;11.74;100.00
47524;BME280;33253;42.144;25.884;2023-03-04T12:56:44;100386.56;;;11.53;100.00
47524;BME280;33253;42.144;25.884;2023-03-04T12:59:16;100387.22;;;11.47;100.00
47524;BME280;33253;42.144;25.884;2023-03-04T13:01:45;100381.03;;;11.42;100.00
47524;BME280;33253;42.144;25.884;2023-03-04T13:04:18;100377.56;;;11.42;100.00
47524;BME280;33253;42.144;25.884;2023-03-04T13:09:28;100373.47;;;11.48;100.00
47524;BME280;33253;42.144;25.884;2023-03-04T13:12:01;100372.44;;;11.43;100.00
47524;BME280;33253;42.144;25.884;2023-03-04T13:14:27;100368.09;;;11.42;100.00
47524;BME280;33253;42.144;25.884;2023-03-04T13:16:56;100361.28;;;11.44;100.00
47524;BME280;33253;42.144;25.884;2023-03-04T13:19:41;100358.78;;;11.47;100.00
47524;BME280;33253;42.144;25.884;2023-03-04T13:22:26;100364.16;;;11.54;100.00
47524;BME280;33253;42.144;25.884;2023-03-04T13:24:51;100352.16;;;11.56;100.00
47524;BME280;33253;42.144;25.884;2023-03-04T13:30:01;100343.53;;;11.55;100.00
47524;BME280;33253;42.144;25.884;2023-03-04T13:32:36;100350.69;;;11.64;100.00
47524;BME280;33253;42.144;25.884;2023-03-04T13:35:22;100347.06;;;11.59;100.00
47524;BME280;33253;42.144;25.884;2023-03-04T13:37:57;100342.19;;;11.68;100.00
47524;BME280;33253;42.144;25.884;2023-03-04T13:40:23;100334.59;;;11.73;100.00
47524;BME280;33253;42.144;25.884;2023-03-04T13:43:12;100336.50;;;11.80;100.00
47524;BME280;33253;42.144;25.884;2023-03-04T13:45:41;100321.22;;;11.88;100.00
47524;BME280;33253;42.144;25.884;2023-03-04T13:48:07;100323.66;;;11.83;100.00
47524;BME280;33253;42.144;25.884;2023-03-04T13:50:47;100321.28;;;11.91;100.00
47524;BME280;33253;42.144;25.884;2023-03-04T13:56:21;100318.22;;;12.03;100.00
47524;BME280;33253;42.144;25.884;2023-03-04T13:58:39;100317.66;;;12.13;100.00
47524;BME280;33253;42.144;25.884;2023-03-04T14:01:05;100316.84;;;12.16;100.00
47524;BME280;33253;42.144;25.884;2023-03-04T14:03:43;100315.09;;;12.14;100.00
47524;BME280;33253;42.144;25.884;2023-03-04T14:08:35;100303.75;;;12.09;100.00
47524;BME280;33253;42.144;25.884;2023-03-04T14:11:00;100297.63;;;12.07;100.00
47524;BME280;33253;42.144;25.884;2023-03-04T14:13:25;100298.50;;;12.06;100.00
47524;BME280;33253;42.144;25.884;2023-03-04T14:15:55;100299.41;;;12.08;100.00